Vårt webkamera more information My webcam


webkamera på Randaberg more information webcam on Randaberg


Lynradar more information blitzortung!


Nedbørsradar  rain snow radar


Besøk vår andre værside:

Alternativ webside

Alternativ mobil

Regnskvett RandabergWebsite of another weatherstation



Ikke nødvendig med spesiell oppmerksomhet.    Det er ingen advarsler

Select another period ( hide this area )

enheter Periode Custom range Directly to
Metric Engelsk Begge
Daglig Weekly Månedlig Årlig
use both date-selectors for a custom range
previous Dag
With this date

WeatherUnderground graphs for this period ( click here )


Daglig sammendrag for onsdag 20 Mars 2019
Tid Temp. ( °C ) Dew pt. ( °C ) Vind ( km/h ) fra Vindkast ( km/h ) Trykk ( hPa ) Humid.( % ) Rainrate ( cm )
Max7,3 7,1 14,8 ØSØ ( 56/217 ) 27,4 1017,2 99 2,50
Snitt7,0 6,7 4,0 Stille #21/54 7,9 1016,6 98 2,10
Min6,4 6,0 -   0,0 1016,5 97 -
Daglig Tabular details for onsdag 20 Mars 2019
Tid Temp. ( °C ) Dew pt. ( °C ) Vind ( km/h ) fra Vindkast ( km/h ) Trykk ( hPa ) Humid.( % ) Rainrate ( cm )
00:04 6,4 6,1 5,0 Sør 17,2 1017,2 98 1,00
00:09 6,4 6,1 10,5 ØSØ 27,4 1016,8 98 1,00
00:14 6,4 6,0 9,3 Øst 14,0 1016,8 97 1,30
00:19 6,4 6,0 9,3 ØSØ 16,6 1016,8 97 1,30
00:24 6,5 6,2 14,8 Øst 18,3 1016,8 98 1,50
00:29 6,5 6,1 4,7 ØSØ 11,1 1016,8 97 1,80
00:34 6,5 6,1 4,0 ØSØ 10,1 1016,8 97 1,80
00:39 6,6 6,3 10,1 ØNØ 18,3 1016,8 98 -
00:44 6,6 6,3 14,0 ØSØ 14,0 1016,8 98 0,30
00:49 6,6 6,3 14,8 ØNØ 14,8 1016,8 98 0,50
00:54 6,6 6,3 5,8 SSØ 13,7 1016,5 98 0,80
00:59 6,7 6,4 4,0 8,2 1016,5 98 0,80
01:04 6,7 6,4   Stille 6,4 1016,5 98 1,00
01:09 6,8 6,5 8,2 ØNØ 16,3 1016,5 98 1,30
01:14 6,9 6,6   Stille   1016,5 98 1,80
01:19 6,9 6,5   Stille   1016,5 97 2,00
01:24 6,9 6,6   Stille   1016,5 98 2,30
01:29 6,9 6,6   Stille   1016,5 98 2,30
01:34 6,9 6,6   Stille   1016,5 98 2,50
01:39 7,0 6,7 6,9 ØSØ 8,7 1016,5 98 0,30
01:44 7,1 6,8 4,7 SSØ 18,0 1016,5 98 0,30
01:49 7,1 6,8 2,1 SSØ 5,8 1016,5 98 0,50
01:54 7,1 6,8 5,0 Sør 6,9 1016,5 98 0,80
01:59 7,1 6,8 6,4 ØSØ 11,1 1016,5 98 0,80
02:03 7,1 6,8   Stille 6,4 1016,5 98 1,00
02:09 7,1 6,8 11,9 13,7 1016,5 98 1,00
02:14 7,1 6,8 3,2 ØNØ 10,1 1016,5 98 1,00
02:19 7,1 6,8 2,1 VNV 2,9 1016,5 98 1,30
02:24 7,2 7,1   Stille 7,6 1016,5 99 1,30
02:29 7,3 7,0 8,2 VSV 12,2 1016,5 98 1,30
02:34 7,3 7,0 2,9 VNV 7,6 1016,5 98 1,30
02:39 7,3 7,0 4,7 VNV 6,4 1016,5 98 -
02:44 7,3 7,0 5,8 VSV 8,7 1016,5 98 -
02:49 7,3 7,0   Stille 7,6 1016,5 98 -
02:54 7,3 7,0 6,9 SV 6,9 1016,5 98 -
02:59 7,3 7,0   Stille 4,7 1016,5 98 -
03:04 7,3 7,0 6,4 VEST 10,1 1016,5 98 0,50
03:09 7,2 6,9   Stille   1016,5 98 0,50
03:14 7,2 7,1   Stille   1016,5 99 0,50
03:19 7,2 7,1   Stille   1016,5 99 0,50
03:24 7,2 7,1   Stille   1016,5 99 0,50
03:29 7,1 7,0   Stille   1016,5 99 0,50
03:34 7,1 7,0   Stille   1016,5 99 0,50
03:39 7,1 7,0   Stille   1016,5 99 -
03:44 7,2 7,1   Stille   1016,5 99 -
03:49 7,2 7,1   Stille 7,6 1016,5 99 -
03:54 7,2 7,1   Stille 2,1 1016,5 99 -
03:59 7,1 7,0   Stille 4,7 1016,5 99 -
04:04 7,1 7,0 2,9 VNV 5,0 1016,5 99 -
04:09 7,1 7,0 3,2 VNV 6,9 1016,8 99 -
04:14 7,1 7,0 5,0 NV 8,2 1016,8 99 -
04:19 7,1 7,0 2,1 NV 8,7 1016,8 99 -
04:24 7,1 7,0 5,8 VSV 14,0 1016,8 99 -
04:29 7,1 7,0 5,8 NV 6,4 1016,8 99 -
Daglig sammendrag for onsdag 20 Mars 2019
Tid Temp. ( °C ) Dew pt. ( °C ) Vind ( km/h ) fra Vindkast ( km/h ) Trykk ( hPa ) Humid.( % ) Rainrate ( cm )
Max7,3 7,1 14,8 ØSØ ( 56/217 ) 27,4 1017,2 99 2,50
Snitt7,0 6,7 4,0 Stille #21/54 7,9 1016,6 98 2,10
Min6,4 6,0 -   0,0 1016,5 97 -
Daglig Tabular details for onsdag 20 Mars 2019
Tid Temp. ( °C ) Dew pt. ( °C ) Vind ( km/h ) fra Vindkast ( km/h ) Trykk ( hPa ) Humid.( % ) Rainrate ( cm )
00:04 6,4 6,1 5,0 Sør 17,2 1017,2 98 1,00
00:09 6,4 6,1 10,5 ØSØ 27,4 1016,8 98 1,00
00:14 6,4 6,0 9,3 Øst 14,0 1016,8 97 1,30
00:19 6,4 6,0 9,3 ØSØ 16,6 1016,8 97 1,30
00:24 6,5 6,2 14,8 Øst 18,3 1016,8 98 1,50
00:29 6,5 6,1 4,7 ØSØ 11,1 1016,8 97 1,80
00:34 6,5 6,1 4,0 ØSØ 10,1 1016,8 97 1,80
00:39 6,6 6,3 10,1 ØNØ 18,3 1016,8 98 -
00:44 6,6 6,3 14,0 ØSØ 14,0 1016,8 98 0,30
00:49 6,6 6,3 14,8 ØNØ 14,8 1016,8 98 0,50
00:54 6,6 6,3 5,8 SSØ 13,7 1016,5 98 0,80
00:59 6,7 6,4 4,0 8,2 1016,5 98 0,80
01:04 6,7 6,4   Stille 6,4 1016,5 98 1,00
01:09 6,8 6,5 8,2 ØNØ 16,3 1016,5 98 1,30
01:14 6,9 6,6   Stille   1016,5 98 1,80
01:19 6,9 6,5   Stille   1016,5 97 2,00
01:24 6,9 6,6   Stille   1016,5 98 2,30
01:29 6,9 6,6   Stille   1016,5 98 2,30
01:34 6,9 6,6   Stille   1016,5 98 2,50
01:39 7,0 6,7 6,9 ØSØ 8,7 1016,5 98 0,30
01:44 7,1 6,8 4,7 SSØ 18,0 1016,5 98 0,30
01:49 7,1 6,8 2,1 SSØ 5,8 1016,5 98 0,50
01:54 7,1 6,8 5,0 Sør 6,9 1016,5 98 0,80
01:59 7,1 6,8 6,4 ØSØ 11,1 1016,5 98 0,80
02:03 7,1 6,8   Stille 6,4 1016,5 98 1,00
02:09 7,1 6,8 11,9 13,7 1016,5 98 1,00
02:14 7,1 6,8 3,2 ØNØ 10,1 1016,5 98 1,00
02:19 7,1 6,8 2,1 VNV 2,9 1016,5 98 1,30
02:24 7,2 7,1   Stille 7,6 1016,5 99 1,30
02:29 7,3 7,0 8,2 VSV 12,2 1016,5 98 1,30
02:34 7,3 7,0 2,9 VNV 7,6 1016,5 98 1,30
02:39 7,3 7,0 4,7 VNV 6,4 1016,5 98 -
02:44 7,3 7,0 5,8 VSV 8,7 1016,5 98 -
02:49 7,3 7,0   Stille 7,6 1016,5 98 -
02:54 7,3 7,0 6,9 SV 6,9 1016,5 98 -
02:59 7,3 7,0   Stille 4,7 1016,5 98 -
03:04 7,3 7,0 6,4 VEST 10,1 1016,5 98 0,50
03:09 7,2 6,9   Stille   1016,5 98 0,50
03:14 7,2 7,1   Stille   1016,5 99 0,50
03:19 7,2 7,1   Stille   1016,5 99 0,50
03:24 7,2 7,1   Stille   1016,5 99 0,50
03:29 7,1 7,0   Stille   1016,5 99 0,50
03:34 7,1 7,0   Stille   1016,5 99 0,50
03:39 7,1 7,0   Stille   1016,5 99 -
03:44 7,2 7,1   Stille   1016,5 99 -
03:49 7,2 7,1   Stille 7,6 1016,5 99 -
03:54 7,2 7,1   Stille 2,1 1016,5 99 -
03:59 7,1 7,0   Stille 4,7 1016,5 99 -
04:04 7,1 7,0 2,9 VNV 5,0 1016,5 99 -
04:09 7,1 7,0 3,2 VNV 6,9 1016,8 99 -
04:14 7,1 7,0 5,0 NV 8,2 1016,8 99 -
04:19 7,1 7,0 2,1 NV 8,7 1016,8 99 -
04:24 7,1 7,0 5,8 VSV 14,0 1016,8 99 -
04:29 7,1 7,0 5,8 NV 6,4 1016,8 99 -

Download your copy of this data-set  here

Our weather-data as stored at Weather Underground. Script utviklet av Jim McMurry. Tilrettelagt for malen av Leuven-Template.eu

Du finner vår vær info også på:

European Weather Network

WeatherCloud

Weather Underground

Citizen Weather Observer Program (CWOP)

Utstyr vi bruker:

Værstsjon
Oregon scientific WMR 300

Værprogram
Meteobridge

Oregon scientific WMR 300

Meteobridge